createdAt,value
2019-04-16T00:00:26.954Z,0
2019-04-16T00:00:53.813Z,0
2019-04-16T00:01:20.908Z,0
2019-04-16T00:01:48.009Z,0
2019-04-16T00:02:18.441Z,0
2019-04-16T00:02:41.306Z,0
2019-04-16T00:03:08.403Z,0
2019-04-16T00:03:35.500Z,0
2019-04-16T00:04:02.599Z,0
2019-04-16T00:04:29.701Z,0
2019-04-16T00:04:56.685Z,0
2019-04-16T00:05:27.425Z,0
2019-04-16T00:05:50.000Z,0
2019-04-16T00:06:17.144Z,0
2019-04-16T00:06:43.250Z,0
2019-04-16T00:07:09.385Z,0
2019-04-16T00:07:35.488Z,0
2019-04-16T00:08:01.723Z,0
2019-04-16T00:08:30.718Z,0
2019-04-16T00:08:58.190Z,0
2019-04-16T00:09:23.955Z,0
2019-04-16T00:09:50.121Z,0
2019-04-16T00:10:16.294Z,0
2019-04-16T00:10:42.388Z,0
2019-04-16T00:11:08.486Z,0
2019-04-16T00:11:34.629Z,0
2019-04-16T00:12:00.732Z,0
2019-04-16T00:12:26.845Z,0
2019-04-16T00:12:52.952Z,0
2019-04-16T00:13:19.094Z,0
2019-04-16T00:13:45.206Z,0
2019-04-16T00:14:12.439Z,0
2019-04-16T00:14:38.536Z,0
2019-04-16T00:15:04.673Z,0
2019-04-16T00:15:30.792Z,0
2019-04-16T00:15:57.695Z,0
2019-04-16T00:16:24.794Z,0
2019-04-16T00:16:51.920Z,0
2019-04-16T00:17:19.024Z,0
2019-04-16T00:17:47.237Z,0
2019-04-16T00:18:12.233Z,0
2019-04-16T00:18:39.387Z,0
2019-04-16T00:19:09.451Z,0
2019-04-16T00:19:35.593Z,0
2019-04-16T00:20:05.623Z,0
2019-04-16T00:20:28.859Z,0
2019-04-16T00:20:56.136Z,0
2019-04-16T00:21:23.196Z,0
2019-04-16T00:21:50.289Z,0
2019-04-16T00:22:17.417Z,0
2019-04-16T00:22:43.522Z,0
2019-04-16T00:23:09.637Z,0
2019-04-16T00:23:35.742Z,0
2019-04-16T00:24:02.603Z,0
2019-04-16T00:24:29.663Z,0
2019-04-16T00:24:55.835Z,0
2019-04-16T00:25:21.937Z,0
2019-04-16T00:25:48.053Z,0
2019-04-16T00:26:15.144Z,0
2019-04-16T00:26:42.237Z,0
2019-04-16T00:27:09.370Z,0
2019-04-16T00:27:35.503Z,0
2019-04-16T00:28:02.784Z,0
2019-04-16T00:28:30.665Z,0
2019-04-16T00:28:55.947Z,0
2019-04-16T00:29:23.042Z,0
2019-04-16T00:29:50.395Z,0
2019-04-16T00:30:17.494Z,0
2019-04-16T00:30:44.587Z,0
2019-04-16T00:31:11.084Z,0
2019-04-16T00:31:38.222Z,0
2019-04-16T00:32:07.778Z,0
2019-04-16T00:32:31.401Z,0
2019-04-16T00:32:58.317Z,0
2019-04-16T00:33:25.416Z,0
2019-04-16T00:33:52.510Z,0
2019-04-16T00:34:19.627Z,0
2019-04-16T00:34:46.750Z,0
2019-04-16T00:35:15.345Z,0
2019-04-16T00:35:39.019Z,0
2019-04-16T00:36:06.328Z,0
2019-04-16T00:36:33.486Z,0
2019-04-16T00:36:59.826Z,0
2019-04-16T00:37:25.958Z,0
2019-04-16T00:37:53.104Z,0
2019-04-16T00:38:22.390Z,0
2019-04-16T00:38:47.334Z,0
2019-04-16T00:39:14.430Z,0
2019-04-16T00:39:41.285Z,0
2019-04-16T00:40:07.789Z,0
2019-04-16T00:40:34.871Z,0
2019-04-16T00:41:02.003Z,0
2019-04-16T00:41:27.113Z,0
2019-04-16T00:41:53.255Z,0
2019-04-16T00:42:19.386Z,0
2019-04-16T00:42:45.498Z,0
2019-04-16T00:43:11.638Z,0
2019-04-16T00:43:37.747Z,0
2019-04-16T00:44:03.909Z,0
2019-04-16T00:44:30.016Z,0
2019-04-16T00:44:56.118Z,0
2019-04-16T00:45:22.232Z,0
2019-04-16T00:45:48.334Z,0
2019-04-16T00:46:15.461Z,0
2019-04-16T00:46:41.569Z,0
2019-04-16T00:47:07.680Z,0
2019-04-16T00:47:33.781Z,0
2019-04-16T00:48:00.880Z,0
2019-04-16T00:48:26.988Z,0
2019-04-16T00:48:53.099Z,0
2019-04-16T00:49:19.207Z,0
2019-04-16T00:49:47.307Z,0
2019-04-16T00:50:14.395Z,0
2019-04-16T00:50:40.515Z,0
2019-04-16T00:51:06.616Z,0
2019-04-16T00:51:32.722Z,0
2019-04-16T00:51:58.826Z,0
2019-04-16T00:52:25.927Z,0
2019-04-16T00:52:52.053Z,0
2019-04-16T00:53:19.174Z,0
2019-04-16T00:53:45.315Z,0
2019-04-16T00:54:12.442Z,0
2019-04-16T00:54:39.208Z,0
2019-04-16T00:55:05.670Z,0
2019-04-16T00:55:32.767Z,0
2019-04-16T00:55:59.865Z,0
2019-04-16T00:56:26.112Z,0
2019-04-16T00:56:53.235Z,0
2019-04-16T00:57:20.332Z,0
2019-04-16T00:57:48.581Z,0
2019-04-16T00:58:13.746Z,0
2019-04-16T00:58:40.848Z,0
2019-04-16T00:59:07.950Z,0
2019-04-16T00:59:35.043Z,0
2019-04-16T01:00:02.208Z,0
2019-04-16T01:00:30.556Z,0
2019-04-16T01:00:55.425Z,0
2019-04-16T01:01:21.530Z,0
2019-04-16T01:01:47.646Z,0
2019-04-16T01:02:14.003Z,0
2019-04-16T01:02:40.137Z,0
2019-04-16T01:03:06.264Z,0
2019-04-16T01:03:32.379Z,0
2019-04-16T01:03:58.490Z,0
2019-04-16T01:04:24.780Z,0
2019-04-16T01:04:50.890Z,0
2019-04-16T01:05:17.003Z,0
2019-04-16T01:05:44.165Z,0
2019-04-16T01:06:11.253Z,0
2019-04-16T01:06:37.865Z,0
2019-04-16T01:07:03.567Z,0
2019-04-16T01:07:29.782Z,0
2019-04-16T01:07:55.886Z,0
2019-04-16T01:08:21.995Z,0
2019-04-16T01:08:54.675Z,0
2019-04-16T01:09:16.214Z,0
2019-04-16T01:09:42.347Z,0
2019-04-16T01:10:08.458Z,0
2019-04-16T01:10:34.563Z,0
2019-04-16T01:11:00.673Z,0
2019-04-16T01:11:26.781Z,0
2019-04-16T01:11:53.882Z,0
2019-04-16T01:12:20.022Z,0
2019-04-16T01:12:46.149Z,0
2019-04-16T01:13:12.402Z,0
2019-04-16T01:13:39.496Z,0
2019-04-16T01:14:06.595Z,0
2019-04-16T01:14:33.686Z,0
2019-04-16T01:15:01.247Z,0
2019-04-16T01:15:29.157Z,0
2019-04-16T01:15:54.499Z,0
2019-04-16T01:16:21.618Z,0
2019-04-16T01:16:48.714Z,0
2019-04-16T01:17:16.188Z,0
2019-04-16T01:17:42.321Z,0
2019-04-16T01:18:09.426Z,0
2019-04-16T01:18:38.443Z,0
2019-04-16T01:19:02.637Z,0
2019-04-16T01:19:29.758Z,0
2019-04-16T01:19:56.886Z,0
2019-04-16T01:20:24.045Z,0
2019-04-16T01:20:50.195Z,0
2019-04-16T01:21:17.275Z,0
2019-04-16T01:21:44.746Z,0
2019-04-16T01:22:10.476Z,0
2019-04-16T01:22:37.551Z,0
2019-04-16T01:23:04.644Z,0
2019-04-16T01:23:31.735Z,0
2019-04-16T01:23:58.833Z,0
2019-04-16T01:24:25.614Z,0
2019-04-16T01:24:52.593Z,0
2019-04-16T01:25:20.208Z,0
2019-04-16T01:25:45.801Z,0
2019-04-16T01:26:13.051Z,0
2019-04-16T01:26:40.154Z,0
2019-04-16T01:27:07.271Z,0
2019-04-16T01:27:34.371Z,0
2019-04-16T01:28:01.568Z,0
2019-04-16T01:28:29.338Z,0
2019-04-16T01:28:54.721Z,0
2019-04-16T01:29:21.854Z,0
2019-04-16T01:29:48.955Z,0
2019-04-16T01:30:16.197Z,0
2019-04-16T01:30:43.293Z,0
2019-04-16T01:31:10.387Z,0
2019-04-16T01:31:38.643Z,0
2019-04-16T01:32:03.593Z,0
2019-04-16T01:32:30.681Z,0
2019-04-16T01:32:57.781Z,0
2019-04-16T01:33:24.907Z,0
2019-04-16T01:33:52.012Z,0
2019-04-16T01:34:19.117Z,0
2019-04-16T01:34:46.992Z,0
2019-04-16T01:35:12.320Z,0
2019-04-16T01:35:39.416Z,0
2019-04-16T01:36:06.514Z,0
2019-04-16T01:36:33.611Z,0
2019-04-16T01:37:00.186Z,0
2019-04-16T01:37:27.279Z,0
2019-04-16T01:37:56.475Z,0
2019-04-16T01:38:19.548Z,0
2019-04-16T01:38:46.683Z,0
2019-04-16T01:39:18.181Z,0
2019-04-16T01:39:47.333Z,0
2019-04-16T01:40:10.187Z,0
2019-04-16T01:40:37.316Z,0
2019-04-16T01:41:04.407Z,0
2019-04-16T01:41:31.504Z,0
2019-04-16T01:41:58.564Z,0
2019-04-16T01:42:25.683Z,0
2019-04-16T01:42:54.381Z,0
2019-04-16T01:43:18.891Z,0
2019-04-16T01:43:46.007Z,0
2019-04-16T01:44:12.151Z,0
2019-04-16T01:44:39.244Z,0
2019-04-16T01:45:06.372Z,0
2019-04-16T01:45:33.469Z,0
2019-04-16T01:46:01.242Z,0
2019-04-16T01:46:26.687Z,0
2019-04-16T01:46:52.802Z,0
2019-04-16T01:47:18.953Z,0
2019-04-16T01:47:46.045Z,0
2019-04-16T01:48:13.510Z,0
2019-04-16T01:48:40.604Z,0
2019-04-16T01:49:09.654Z,0
2019-04-16T01:49:33.852Z,0
2019-04-16T01:49:59.977Z,0
2019-04-16T01:50:27.070Z,0
2019-04-16T01:50:54.168Z,0
2019-04-16T01:51:21.434Z,0
2019-04-16T01:51:49.310Z,0
2019-04-16T01:52:18.644Z,0
2019-04-16T01:52:42.567Z,0
2019-04-16T01:53:09.707Z,0
2019-04-16T01:53:36.802Z,0
2019-04-16T01:54:03.904Z,0
2019-04-16T01:54:31.031Z,0
2019-04-16T01:54:58.128Z,0
2019-04-16T01:55:25.699Z,0
2019-04-16T01:55:51.418Z,0
2019-04-16T01:56:18.480Z,0
2019-04-16T01:56:44.811Z,0
2019-04-16T01:57:11.943Z,0
2019-04-16T01:57:38.084Z,0
2019-04-16T01:58:05.171Z,0
2019-04-16T01:58:33.815Z,0
2019-04-16T01:58:58.443Z,0
2019-04-16T01:59:25.526Z,0
2019-04-16T01:59:52.109Z,0
2019-04-16T02:00:19.280Z,0
2019-04-16T02:00:46.369Z,0
2019-04-16T02:01:13.463Z,0
2019-04-16T02:01:40.279Z,0
2019-04-16T02:02:06.726Z,0
2019-04-16T02:02:33.849Z,0
2019-04-16T02:03:00.941Z,0
2019-04-16T02:03:28.041Z,0
2019-04-16T02:03:55.163Z,0
2019-04-16T02:04:21.294Z,0
2019-04-16T02:04:48.395Z,0
2019-04-16T02:05:14.866Z,0
2019-04-16T02:05:41.964Z,0
2019-04-16T02:06:09.062Z,0
2019-04-16T02:06:36.159Z,0
2019-04-16T02:07:03.411Z,0
2019-04-16T02:07:30.480Z,0
2019-04-16T02:07:59.183Z,0
2019-04-16T02:08:23.676Z,0
2019-04-16T02:08:50.774Z,0
2019-04-16T02:09:22.587Z,0
2019-04-16T02:09:46.203Z,0
2019-04-16T02:10:13.325Z,0
2019-04-16T02:10:40.431Z,0
2019-04-16T02:11:09.523Z,0
2019-04-16T02:11:33.815Z,0
2019-04-16T02:12:00.915Z,0
2019-04-16T02:12:28.003Z,0
2019-04-16T02:12:54.892Z,0
2019-04-16T02:13:21.994Z,0
2019-04-16T02:13:49.122Z,0
2019-04-16T02:14:17.950Z,0
2019-04-16T02:14:42.353Z,0
2019-04-16T02:15:09.507Z,0
2019-04-16T02:15:36.632Z,0
2019-04-16T02:16:03.940Z,0
2019-04-16T02:16:30.494Z,0
2019-04-16T02:16:56.745Z,0
2019-04-16T02:17:26.647Z,0
2019-04-16T02:17:49.912Z,0
2019-04-16T02:18:17.012Z,0
2019-04-16T02:18:43.138Z,0
2019-04-16T02:19:10.239Z,0
2019-04-16T02:19:37.359Z,0
2019-04-16T02:20:05.800Z,0
2019-04-16T02:20:30.592Z,0
2019-04-16T02:20:57.686Z,0
2019-04-16T02:21:24.810Z,0
2019-04-16T02:21:51.961Z,0
2019-04-16T02:22:19.101Z,0
2019-04-16T02:22:46.197Z,0
2019-04-16T02:23:13.426Z,0
2019-04-16T02:23:39.532Z,0
2019-04-16T02:24:06.627Z,0
2019-04-16T02:24:33.734Z,0
2019-04-16T02:24:59.865Z,0
2019-04-16T02:25:27.124Z,0
2019-04-16T02:25:54.219Z,0
2019-04-16T02:26:23.012Z,0
2019-04-16T02:26:46.490Z,0
2019-04-16T02:27:13.741Z,0
2019-04-16T02:27:39.863Z,0
2019-04-16T02:28:06.956Z,0
2019-04-16T02:28:34.255Z,0
2019-04-16T02:29:01.350Z,0
2019-04-16T02:29:30.465Z,0
2019-04-16T02:29:54.559Z,0
2019-04-16T02:30:21.687Z,0
2019-04-16T02:30:49.779Z,0
2019-04-16T02:31:18.159Z,0
2019-04-16T02:31:47.825Z,0
2019-04-16T02:32:12.421Z,0
2019-04-16T02:32:38.552Z,0
2019-04-16T02:33:04.720Z,0
2019-04-16T02:33:30.834Z,0
2019-04-16T02:33:56.965Z,0
2019-04-16T02:34:23.446Z,0
2019-04-16T02:34:49.612Z,0
2019-04-16T02:35:16.355Z,0
2019-04-16T02:35:42.519Z,0
2019-04-16T02:36:08.947Z,0
2019-04-16T02:36:35.061Z,0
2019-04-16T02:37:03.124Z,0
2019-04-16T02:37:28.324Z,0
2019-04-16T02:37:55.464Z,0
2019-04-16T02:38:22.574Z,0
2019-04-16T02:38:53.074Z,0
2019-04-16T02:39:16.051Z,0
2019-04-16T02:39:48.908Z,0
2019-04-16T02:40:18.252Z,0
2019-04-16T02:40:40.374Z,0
2019-04-16T02:41:07.774Z,0
2019-04-16T02:41:33.864Z,0
2019-04-16T02:42:00.025Z,0
2019-04-16T02:42:30.230Z,0
2019-04-16T02:42:53.319Z,0
2019-04-16T02:43:21.509Z,0
2019-04-16T02:43:48.633Z,0
2019-04-16T02:44:16.777Z,0
2019-04-16T02:44:48.418Z,0
2019-04-16T02:45:09.056Z,0
2019-04-16T02:45:35.196Z,0
2019-04-16T02:46:02.352Z,0
2019-04-16T02:46:32.025Z,0
2019-04-16T02:46:54.680Z,0
2019-04-16T02:47:22.831Z,0
2019-04-16T02:47:50.947Z,0
2019-04-16T02:48:18.044Z,0
2019-04-16T02:48:49.903Z,0
2019-04-16T02:49:12.509Z,0
2019-04-16T02:49:39.645Z,0
2019-04-16T02:50:06.759Z,0
2019-04-16T02:50:33.868Z,0
2019-04-16T02:51:05.041Z,0
2019-04-16T02:51:28.081Z,0
2019-04-16T02:51:54.269Z,0
2019-04-16T02:52:21.791Z,0
2019-04-16T02:52:50.983Z,0
2019-04-16T02:53:15.027Z,0
2019-04-16T02:53:42.122Z,0
2019-04-16T02:54:09.805Z,0
2019-04-16T02:54:36.903Z,0
2019-04-16T02:55:06.914Z,0
2019-04-16T02:55:30.196Z,0
2019-04-16T02:55:57.281Z,0
2019-04-16T02:56:24.592Z,0
2019-04-16T02:56:51.975Z,0
2019-04-16T02:57:18.203Z,0
2019-04-16T02:57:44.397Z,0
2019-04-16T02:58:10.761Z,0
2019-04-16T02:58:37.891Z,0
2019-04-16T02:59:09.120Z,0
2019-04-16T02:59:31.142Z,0
2019-04-16T02:59:58.393Z,0
2019-04-16T03:00:25.501Z,0
2019-04-16T03:00:52.584Z,0
2019-04-16T03:01:20.817Z,0
2019-04-16T03:01:45.820Z,0
2019-04-16T03:02:12.922Z,0
2019-04-16T03:02:40.017Z,0
2019-04-16T03:03:06.206Z,0
2019-04-16T03:03:32.724Z,0
2019-04-16T03:03:59.816Z,0
2019-04-16T03:04:26.958Z,0
2019-04-16T03:04:53.053Z,0
2019-04-16T03:05:19.811Z,0
2019-04-16T03:05:46.910Z,0
2019-04-16T03:06:13.068Z,0
2019-04-16T03:06:40.161Z,0
2019-04-16T03:07:07.284Z,0
2019-04-16T03:07:33.477Z,0
2019-04-16T03:08:01.367Z,0
2019-04-16T03:08:26.687Z,0
2019-04-16T03:08:53.787Z,0
2019-04-16T03:09:20.918Z,0
2019-04-16T03:10:00.472Z,0
2019-04-16T03:10:17.265Z,0
2019-04-16T03:10:44.585Z,0
2019-04-16T03:11:09.539Z,0
2019-04-16T03:11:36.634Z,0
2019-04-16T03:12:03.741Z,0
2019-04-16T03:12:30.957Z,0
2019-04-16T03:12:57.117Z,0
2019-04-16T03:13:24.208Z,0
2019-04-16T03:13:52.410Z,0
2019-04-16T03:14:18.407Z,0
2019-04-16T03:14:45.500Z,0
2019-04-16T03:15:12.657Z,0
2019-04-16T03:15:39.718Z,0
2019-04-16T03:16:07.546Z,0
2019-04-16T03:16:37.602Z,0
2019-04-16T03:17:00.855Z,0
2019-04-16T03:17:27.952Z,0
2019-04-16T03:17:55.047Z,0
2019-04-16T03:18:22.143Z,0
2019-04-16T03:18:49.246Z,0
2019-04-16T03:19:18.820Z,0
2019-04-16T03:19:42.472Z,0
2019-04-16T03:20:09.573Z,0
2019-04-16T03:20:36.699Z,0
2019-04-16T03:21:03.833Z,0
2019-04-16T03:21:30.926Z,0
2019-04-16T03:21:59.017Z,0
2019-04-16T03:22:24.582Z,0
2019-04-16T03:22:51.559Z,0
2019-04-16T03:23:17.695Z,0
2019-04-16T03:23:44.798Z,0
2019-04-16T03:24:11.894Z,0
2019-04-16T03:24:40.144Z,0
2019-04-16T03:25:04.138Z,0
2019-04-16T03:25:31.228Z,0
2019-04-16T03:25:58.327Z,0
2019-04-16T03:26:25.546Z,0
2019-04-16T03:26:53.629Z,0
2019-04-16T03:27:22.142Z,0
2019-04-16T03:27:47.863Z,0
2019-04-16T03:28:15.319Z,0
2019-04-16T03:28:42.372Z,0
2019-04-16T03:29:09.529Z,0
2019-04-16T03:29:36.628Z,0
2019-04-16T03:30:05.856Z,0
2019-04-16T03:30:40.012Z,0
2019-04-16T03:30:59.100Z,0
2019-04-16T03:31:28.201Z,0
2019-04-16T03:31:58.013Z,0
2019-04-16T03:32:23.476Z,0
2019-04-16T03:32:51.576Z,0
2019-04-16T03:33:19.698Z,0
2019-04-16T03:33:50.112Z,0
2019-04-16T03:34:14.005Z,0
2019-04-16T03:34:41.073Z,0
2019-04-16T03:35:08.346Z,0
2019-04-16T03:35:35.410Z,0
2019-04-16T03:36:02.509Z,0
2019-04-16T03:36:29.374Z,0
2019-04-16T03:36:58.505Z,0
2019-04-16T03:37:23.839Z,0
2019-04-16T03:37:50.940Z,0
2019-04-16T03:38:18.063Z,0
2019-04-16T03:38:46.179Z,0
2019-04-16T03:39:13.762Z,0
2019-04-16T03:39:38.435Z,0
2019-04-16T03:40:15.696Z,0
2019-04-16T03:40:33.664Z,0
2019-04-16T03:40:59.790Z,0
2019-04-16T03:41:25.932Z,0
2019-04-16T03:41:55.897Z,0
2019-04-16T03:42:19.360Z,0
2019-04-16T03:42:46.487Z,0
2019-04-16T03:43:14.580Z,0
2019-04-16T03:43:41.702Z,0
2019-04-16T03:44:08.795Z,0
2019-04-16T03:44:37.125Z,0
2019-04-16T03:45:02.181Z,0
2019-04-16T03:45:29.277Z,0
2019-04-16T03:45:55.441Z,0
2019-04-16T03:46:22.544Z,0
2019-04-16T03:46:49.663Z,0
2019-04-16T03:47:19.012Z,0
2019-04-16T03:47:42.866Z,0
2019-04-16T03:48:10.322Z,0
2019-04-16T03:48:37.438Z,0
2019-04-16T03:49:04.542Z,0
2019-04-16T03:49:30.676Z,0
2019-04-16T03:49:59.279Z,0
2019-04-16T03:50:23.885Z,0
2019-04-16T03:50:51.006Z,0
2019-04-16T03:51:18.107Z,0
2019-04-16T03:51:45.239Z,0
2019-04-16T03:52:12.335Z,0
2019-04-16T03:52:40.491Z,0
2019-04-16T03:53:06.620Z,0
2019-04-16T03:53:34.086Z,0
2019-04-16T03:54:01.187Z,0
2019-04-16T03:54:28.386Z,0
2019-04-16T03:54:55.488Z,0
2019-04-16T03:55:24.905Z,4
2019-04-16T03:55:48.752Z,4
2019-04-16T03:56:16.134Z,4
2019-04-16T03:56:42.317Z,4
2019-04-16T03:57:08.472Z,0
2019-04-16T03:57:35.577Z,0
2019-04-16T03:58:05.044Z,0
2019-04-16T03:58:28.811Z,4
2019-04-16T03:58:55.907Z,4
2019-04-16T03:59:23.006Z,4
2019-04-16T03:59:50.131Z,4
2019-04-16T04:00:18.235Z,0
2019-04-16T04:00:45.329Z,4
2019-04-16T04:01:14.085Z,4
2019-04-16T04:01:38.536Z,4
2019-04-16T04:02:05.643Z,8
2019-04-16T04:02:33.533Z,4
2019-04-16T04:03:00.676Z,4
2019-04-16T04:03:28.083Z,8
2019-04-16T04:03:54.397Z,4
2019-04-16T04:04:21.287Z,8
2019-04-16T04:04:47.412Z,4
2019-04-16T04:05:14.542Z,8
2019-04-16T04:05:41.018Z,12
2019-04-16T04:06:08.434Z,8
2019-04-16T04:06:36.457Z,12
2019-04-16T04:07:01.645Z,12
2019-04-16T04:07:29.025Z,8
2019-04-16T04:07:56.124Z,12
2019-04-16T04:08:23.535Z,12
2019-04-16T04:08:53.164Z,12
2019-04-16T04:09:18.815Z,16
2019-04-16T04:09:44.939Z,20
2019-04-16T04:10:12.057Z,20
2019-04-16T04:10:40.200Z,20
2019-04-16T04:11:09.291Z,24
2019-04-16T04:11:33.491Z,20
2019-04-16T04:11:59.637Z,24
2019-04-16T04:12:27.812Z,24
2019-04-16T04:12:53.879Z,28
2019-04-16T04:13:21.658Z,28
2019-04-16T04:13:50.018Z,32
2019-04-16T04:14:14.966Z,36
2019-04-16T04:14:42.068Z,36
2019-04-16T04:15:08.228Z,40
2019-04-16T04:15:35.322Z,40
2019-04-16T04:16:02.436Z,48
2019-04-16T04:16:30.474Z,48
2019-04-16T04:16:55.352Z,52
2019-04-16T04:17:21.567Z,52
2019-04-16T04:17:48.679Z,60
2019-04-16T04:18:15.780Z,64
2019-04-16T04:18:43.125Z,64
2019-04-16T04:19:08.052Z,72
2019-04-16T04:19:35.148Z,72
2019-04-16T04:20:02.263Z,80
2019-04-16T04:20:30.002Z,84
2019-04-16T04:20:56.152Z,88
2019-04-16T04:21:23.263Z,96
2019-04-16T04:21:50.535Z,100
2019-04-16T04:22:16.490Z,108
2019-04-16T04:22:43.584Z,112
2019-04-16T04:23:10.675Z,120
2019-04-16T04:23:36.812Z,128
2019-04-16T04:24:03.916Z,132
2019-04-16T04:24:31.351Z,140
2019-04-16T04:24:56.183Z,148
2019-04-16T04:25:22.335Z,156
2019-04-16T04:25:49.455Z,164
2019-04-16T04:26:16.580Z,172
2019-04-16T04:26:43.672Z,180
2019-04-16T04:27:12.779Z,188
2019-04-16T04:27:37.908Z,200
2019-04-16T04:28:05.003Z,208
2019-04-16T04:28:32.094Z,220
2019-04-16T04:28:58.227Z,228
2019-04-16T04:29:25.360Z,240
2019-04-16T04:29:53.600Z,248
2019-04-16T04:30:18.433Z,260
2019-04-16T04:30:48.574Z,272
2019-04-16T04:31:12.666Z,288
2019-04-16T04:31:39.765Z,296
2019-04-16T04:32:06.970Z,312
2019-04-16T04:32:35.347Z,324
2019-04-16T04:33:01.089Z,340
2019-04-16T04:33:28.188Z,352
2019-04-16T04:33:55.284Z,368
2019-04-16T04:34:22.410Z,380
2019-04-16T04:34:49.621Z,396
2019-04-16T04:35:19.924Z,408
2019-04-16T04:35:41.904Z,428
2019-04-16T04:36:08.260Z,440
2019-04-16T04:36:36.303Z,460
2019-04-16T04:37:02.463Z,476
2019-04-16T04:37:31.185Z,492
2019-04-16T04:37:55.663Z,508
2019-04-16T04:38:23.157Z,528
2019-04-16T04:38:49.296Z,548
2019-04-16T04:39:17.413Z,568
2019-04-16T04:39:44.085Z,584
2019-04-16T04:40:12.724Z,604
2019-04-16T04:40:44.537Z,624
2019-04-16T04:41:08.542Z,648
2019-04-16T04:41:35.670Z,672
2019-04-16T04:42:02.761Z,692
2019-04-16T04:42:30.930Z,716
2019-04-16T04:42:57.557Z,736
2019-04-16T04:43:23.854Z,760
2019-04-16T04:43:50.955Z,784
2019-04-16T04:44:17.203Z,804
2019-04-16T04:44:46.823Z,828
2019-04-16T04:45:12.408Z,852
2019-04-16T04:45:40.705Z,876
2019-04-16T04:46:05.698Z,904
2019-04-16T04:46:32.782Z,924
2019-04-16T04:46:58.918Z,952
2019-04-16T04:47:26.010Z,980
2019-04-16T04:47:53.105Z,1004
2019-04-16T04:48:22.937Z,1032
2019-04-16T04:48:47.318Z,1060
2019-04-16T04:49:13.471Z,1084
2019-04-16T04:49:40.573Z,1112
2019-04-16T04:50:07.672Z,1140
2019-04-16T04:50:35.247Z,1168
2019-04-16T04:51:00.894Z,1196
2019-04-16T04:51:28.013Z,1228
2019-04-16T04:51:55.108Z,1256
2019-04-16T04:52:22.207Z,1284
2019-04-16T04:52:49.323Z,1312
2019-04-16T04:53:18.294Z,1344
2019-04-16T04:53:42.581Z,1376
2019-04-16T04:54:09.684Z,1404
2019-04-16T04:54:36.781Z,1436
2019-04-16T04:55:03.885Z,1464
2019-04-16T04:55:31.358Z,1500
2019-04-16T04:55:58.486Z,1528
2019-04-16T04:56:27.836Z,1564
2019-04-16T04:56:52.374Z,1596
2019-04-16T04:57:19.471Z,1628
2019-04-16T04:57:46.571Z,1664
2019-04-16T04:58:13.722Z,1696
2019-04-16T04:58:40.110Z,1728
2019-04-16T04:59:07.210Z,1756
2019-04-16T04:59:36.438Z,1788
2019-04-16T05:00:00.633Z,1824
2019-04-16T05:00:27.730Z,1860
2019-04-16T05:00:53.891Z,1888
2019-04-16T05:01:21.192Z,1924
2019-04-16T05:01:47.159Z,1960
2019-04-16T05:02:15.425Z,1992
2019-04-16T05:02:43.637Z,2024
2019-04-16T05:03:08.720Z,2060
2019-04-16T05:03:35.773Z,2100
2019-04-16T05:04:02.896Z,2136
2019-04-16T05:04:29.998Z,2172
2019-04-16T05:04:57.096Z,2208
2019-04-16T05:05:25.531Z,2240
2019-04-16T05:05:50.302Z,2276
2019-04-16T05:06:17.395Z,2316
2019-04-16T05:06:44.494Z,2348
2019-04-16T05:07:12.579Z,2388
2019-04-16T05:07:39.827Z,2420
2019-04-16T05:08:06.930Z,2460
2019-04-16T05:08:34.030Z,2496
2019-04-16T05:09:01.438Z,2532
2019-04-16T05:09:29.314Z,2568
2019-04-16T05:09:54.674Z,2604
2019-04-16T05:10:21.768Z,2640
2019-04-16T05:10:58.564Z,2680
2019-04-16T05:11:19.709Z,2720
2019-04-16T05:11:48.291Z,2752
2019-04-16T05:12:13.611Z,2792
2019-04-16T05:12:40.708Z,2828
2019-04-16T05:13:07.802Z,2864
2019-04-16T05:13:34.907Z,2900
2019-04-16T05:14:01.032Z,2936
2019-04-16T05:14:28.131Z,2976
2019-04-16T05:14:57.000Z,3012
2019-04-16T05:15:20.366Z,3044
2019-04-16T05:15:47.470Z,3080
2019-04-16T05:16:15.591Z,3120
2019-04-16T05:16:42.670Z,3156
2019-04-16T05:17:09.769Z,3196
2019-04-16T05:17:38.389Z,3228
2019-04-16T05:18:05.606Z,3260
2019-04-16T05:18:31.083Z,3304
2019-04-16T05:18:58.370Z,3336
2019-04-16T05:19:25.544Z,3372
2019-04-16T05:19:52.649Z,3412
2019-04-16T05:20:19.743Z,3448
2019-04-16T05:20:46.930Z,3484
2019-04-16T05:21:17.542Z,3520
2019-04-16T05:21:40.509Z,3556
2019-04-16T05:22:07.609Z,3592
2019-04-16T05:22:35.684Z,3632
2019-04-16T05:23:03.298Z,3668
2019-04-16T05:23:30.389Z,3708
2019-04-16T05:23:58.488Z,3744
2019-04-16T05:24:28.821Z,3784
2019-04-16T05:24:52.714Z,3820
2019-04-16T05:25:18.866Z,3856
2019-04-16T05:25:45.968Z,3892
2019-04-16T05:26:14.043Z,3932
2019-04-16T05:26:41.146Z,3972
2019-04-16T05:27:08.341Z,4008
2019-04-16T05:27:34.412Z,4044
2019-04-16T05:28:01.499Z,4084
2019-04-16T05:28:28.760Z,4120
2019-04-16T05:28:56.205Z,4160
2019-04-16T05:29:23.907Z,4196
2019-04-16T05:29:50.992Z,4232
2019-04-16T05:30:19.815Z,4268
2019-04-16T05:30:44.294Z,4300
2019-04-16T05:31:11.394Z,4340
2019-04-16T05:31:38.517Z,4376
2019-04-16T05:32:05.016Z,4408
2019-04-16T05:32:33.822Z,4448
2019-04-16T05:32:59.262Z,4484
2019-04-16T05:33:26.353Z,4516
2019-04-16T05:33:52.489Z,4552
2019-04-16T05:34:21.996Z,4592
2019-04-16T05:34:49.124Z,4628
2019-04-16T05:35:16.425Z,4668
2019-04-16T05:35:43.515Z,4700
2019-04-16T05:36:10.730Z,4736
2019-04-16T05:36:40.057Z,4776
2019-04-16T05:37:04.682Z,4812
2019-04-16T05:37:31.785Z,4852
2019-04-16T05:37:58.883Z,4888
2019-04-16T05:38:25.975Z,4924
2019-04-16T05:38:55.435Z,4964
2019-04-16T05:39:19.215Z,5004
2019-04-16T05:39:46.343Z,5040
2019-04-16T05:40:13.490Z,5076
2019-04-16T05:40:40.612Z,5112
2019-04-16T05:41:13.397Z,5148
2019-04-16T05:41:35.963Z,5184
2019-04-16T05:42:03.061Z,5216
2019-04-16T05:42:30.158Z,5256
2019-04-16T05:42:58.774Z,5292
2019-04-16T05:43:23.535Z,5328
2019-04-16T05:43:50.629Z,5364
2019-04-16T05:44:16.784Z,5396
2019-04-16T05:44:43.917Z,5428
2019-04-16T05:45:11.230Z,5464
2019-04-16T05:45:38.179Z,5500
2019-04-16T05:46:05.422Z,5536
2019-04-16T05:46:31.382Z,5576
2019-04-16T05:46:59.466Z,5608
2019-04-16T05:47:26.593Z,5644
2019-04-16T05:47:52.718Z,5680
2019-04-16T05:48:21.572Z,5708
2019-04-16T05:48:45.923Z,5740
2019-04-16T05:49:13.054Z,5784
2019-04-16T05:49:40.256Z,5820
2019-04-16T05:50:07.360Z,5852
2019-04-16T05:50:34.492Z,5888
2019-04-16T05:51:01.593Z,5924
2019-04-16T05:51:28.240Z,5960
2019-04-16T05:51:54.823Z,6000
2019-04-16T05:52:21.918Z,6028
2019-04-16T05:52:48.051Z,6060
2019-04-16T05:53:16.160Z,6092
2019-04-16T05:53:43.296Z,6132
2019-04-16T05:54:11.932Z,6172
2019-04-16T05:54:36.618Z,6208
2019-04-16T05:55:04.706Z,6240
2019-04-16T05:55:31.800Z,6268
2019-04-16T05:55:58.891Z,6304
2019-04-16T05:56:25.999Z,6340
2019-04-16T05:56:52.318Z,6376
2019-04-16T05:57:19.336Z,6412
2019-04-16T05:57:46.391Z,6448
2019-04-16T05:58:13.485Z,6480
2019-04-16T05:58:39.621Z,6516
2019-04-16T05:59:06.718Z,6552
2019-04-16T05:59:33.750Z,6584
2019-04-16T06:00:02.831Z,6624
2019-04-16T06:00:28.006Z,6660
2019-04-16T06:00:55.126Z,6692
2019-04-16T06:01:22.233Z,6732
2019-04-16T06:01:49.322Z,6768
2019-04-16T06:02:18.360Z,6804
2019-04-16T06:02:43.524Z,6844
2019-04-16T06:03:10.624Z,6876
2019-04-16T06:03:36.807Z,6908
2019-04-16T06:04:03.910Z,6944
2019-04-16T06:04:31.166Z,6988
2019-04-16T06:04:58.265Z,7024
2019-04-16T06:05:26.886Z,7068
2019-04-16T06:05:51.462Z,7104
2019-04-16T06:06:18.711Z,7144
2019-04-16T06:06:45.803Z,7180
2019-04-16T06:07:13.023Z,7216
2019-04-16T06:07:40.119Z,7256
2019-04-16T06:08:06.289Z,7292
2019-04-16T06:08:32.358Z,7328
2019-04-16T06:09:00.447Z,7368
2019-04-16T06:09:27.543Z,7408
2019-04-16T06:09:54.634Z,7440
2019-04-16T06:10:22.742Z,7476
2019-04-16T06:10:50.817Z,7512
2019-04-16T06:11:28.013Z,7544
2019-04-16T06:11:45.139Z,7580
2019-04-16T06:12:11.271Z,7616
2019-04-16T06:12:40.030Z,7652
2019-04-16T06:13:04.985Z,7680
2019-04-16T06:13:32.082Z,7716
2019-04-16T06:13:59.182Z,7752
2019-04-16T06:14:26.326Z,7788
2019-04-16T06:14:54.024Z,7824
2019-04-16T06:15:22.057Z,7860
2019-04-16T06:15:47.295Z,7892
2019-04-16T06:16:13.404Z,7924
2019-04-16T06:16:41.494Z,7960
2019-04-16T06:17:08.596Z,8004
2019-04-16T06:17:35.716Z,8036
2019-04-16T06:18:02.404Z,8068
2019-04-16T06:18:28.951Z,8104
2019-04-16T06:18:55.084Z,8144
2019-04-16T06:19:22.657Z,8176
2019-04-16T06:19:49.792Z,8208
2019-04-16T06:20:18.920Z,8232
2019-04-16T06:20:42.982Z,8264
2019-04-16T06:21:10.086Z,8300
2019-04-16T06:21:37.314Z,8336
2019-04-16T06:22:04.416Z,8368
2019-04-16T06:22:31.542Z,8404
2019-04-16T06:23:00.553Z,8440
2019-04-16T06:23:24.771Z,8468
2019-04-16T06:23:52.877Z,8508
2019-04-16T06:24:20.002Z,8544
2019-04-16T06:24:47.094Z,8580